»·PEaware :: N638YA KPSP-L35

N638YA :: KPSP-L35

FLIGHT INFORMATION

Flight Status: Arrived
Operator: Privately registered:
United States
More flights under this callsign
Pilot: Eric D. (9648)
Aircraft: PIPER PA-44 SEMINOLE
(PA44)
More flights by this aircraft type
Origin: KPSP Palm Springs Intl
United States
Destination: L35 Big Bear City
United States
More flights between these airports :: More routes between these airports
Route: +CATH1 PSP V386 OKACO
File this flight plan on PilotEdge
Remarks:
Altitude:
(Current/Filed)
12,000ft
Speed:
(Current/Filed)
140kts
Departed: 10-Jan-18 07:36 PM
Arrived: 10-Jan-18 08:10 PM
Distance/Time
Traveled:
31nm/0:34
Distance/Time
To Go:
Arrived

Flight Plot

Page will automatically refresh every two minutes.

Flight plan parsing failed; only flown route is shown


Map Options




Map Legend


Flown Route
Filed Route
Departure Airport
Arrival Airport
Navaid (VOR, NDB)
Fix

Horizontal Profiles

Position Reports

Time Latitude Longitude Heading Altitude Ground
Speed
10-Jan-18 19:27 33.824361 -116.498025 54 480ft 0kts
10-Jan-18 19:28 33.824361 -116.498025 54 480ft 0kts
10-Jan-18 19:29 33.824361 -116.498025 54 480ft 0kts
10-Jan-18 19:30 33.824362 -116.498024 54 480ft 0kts
10-Jan-18 19:31 33.824362 -116.498023 54 480ft 0kts
10-Jan-18 19:32 33.824363 -116.498022 54 480ft 0kts
10-Jan-18 19:33 33.824364 -116.498020 54 480ft 0kts
10-Jan-18 19:34 33.824365 -116.498019 54 480ft 0kts
10-Jan-18 19:35 33.824366 -116.498018 54 480ft 0kts
10-Jan-18 19:36 33.824366 -116.498016 54 480ft 0kts
10-Jan-18 19:37 33.824379 -116.497901 115 480ft 2kts
10-Jan-18 19:38 33.824007 -116.497903 216 480ft 3kts
10-Jan-18 19:39 33.824786 -116.499448 240 480ft 0kts
10-Jan-18 19:40 33.824785 -116.499449 240 480ft 0kts
10-Jan-18 19:41 33.824529 -116.499857 241 480ft 3kts
10-Jan-18 19:42 33.837183 -116.510927 325 1019ft 89kts
10-Jan-18 19:43 33.860265 -116.531126 323 1983ft 106kts
10-Jan-18 19:44 33.885373 -116.553040 323 2940ft 118kts
10-Jan-18 19:45 33.905932 -116.540974 97 3880ft 124kts
10-Jan-18 19:46 33.893710 -116.501541 110 5011ft 130kts
10-Jan-18 19:47 33.879980 -116.460144 110 6126ft 135kts
10-Jan-18 19:48 33.865950 -116.420420 115 7254ft 124kts
10-Jan-18 19:49 33.849722 -116.382272 115 8279ft 133kts
10-Jan-18 19:50 33.833693 -116.344646 114 9136ft 119kts
10-Jan-18 19:51 33.818601 -116.309203 112 9804ft 120kts
10-Jan-18 19:52 33.801348 -116.268585 112 10471ft 154kts
10-Jan-18 19:53 33.801815 -116.231269 357 10940ft 105kts
10-Jan-18 19:54 33.829260 -116.246348 330 11024ft 117kts
10-Jan-18 19:55 33.857802 -116.268709 330 11028ft 126kts
10-Jan-18 19:56 33.887171 -116.291463 330 11031ft 124kts
10-Jan-18 19:57 33.916211 -116.313868 330 11034ft 123kts
10-Jan-18 19:58 33.945206 -116.336240 330 11034ft 123kts
10-Jan-18 19:59 33.974025 -116.358526 330 11039ft 122kts
10-Jan-18 20:00 34.002312 -116.380352 330 11049ft 120kts
10-Jan-18 20:01 34.030887 -116.402548 330 10871ft 130kts
10-Jan-18 20:02 34.062848 -116.427173 329 10378ft 139kts
10-Jan-18 20:03 34.096392 -116.453223 328 9886ft 146kts
10-Jan-18 20:04 34.131416 -116.480436 328 9479ft 150kts
10-Jan-18 20:05 34.166166 -116.507462 328 9469ft 148kts
10-Jan-18 20:06 34.198774 -116.532827 328 9502ft 135kts
10-Jan-18 20:07 34.230330 -116.557453 328 9507ft 133kts
10-Jan-18 20:08 34.261165 -116.582387 315 9505ft 131kts
10-Jan-18 20:09 34.264537 -116.620893 279 9506ft 102kts
10-Jan-18 20:10 34.264524 -116.652685 280 9535ft 95kts
10-Jan-18 20:11 34.264336 -116.689265 277 9250ft 123kts
10-Jan-18 20:12 34.264187 -116.730559 277 8826ft 113kts
10-Jan-18 20:13 34.264609 -116.765143 277 8477ft 94kts
10-Jan-18 20:14 34.264250 -116.797795 268 8128ft 100kts
10-Jan-18 20:15 34.264073 -116.831143 269 7201ft 93kts
10-Jan-18 20:16 34.263793 -116.856323 272 6751ft 21kts
10-Jan-18 20:17 34.263392 -116.859088 178 6751ft 0kts
10-Jan-18 20:18 34.262905 -116.859203 260 6751ft 0kts
10-Jan-18 20:19 34.262905 -116.859203 260 6751ft 0kts

Navigation Log

Ident Type
Flight plan parsing failed, navigation log unavailable